Time;durP1;ratioP1;P1;durP2;ratioP2;P2;SDS_P1;SDS_P2;PMS_P1;PMS_P2;Temp;Humidity;BMP_temperature;BMP_pressure;BME280_temperature;BME280_humidity;BME280_pressure;Samples;Min_cycle;Max_cycle;Signal;HPM_P1;HPM_P2
2022/09/21 00:01:10;;;;;;;;;4.00;4.00;;;;;12.01;69.65;102680.50;5030514;28;9759;-67
2022/09/21 00:03:40;;;;;;;;;4.00;4.00;;;;;11.98;69.46;102684.38;5030438;28;9717;-65
2022/09/21 00:06:13;;;;;;;;;3.25;3.00;;;;;11.96;69.60;102672.91;5030325;28;9727;-65
2022/09/21 00:08:40;;;;;;;;;3.00;2.00;;;;;11.95;69.54;102673.03;5030080;28;9738;-65
2022/09/21 00:11:11;;;;;;;;;4.00;3.00;;;;;11.94;69.71;102680.28;5030072;28;9811;-66
2022/09/21 00:13:38;;;;;;;;;4.00;1.50;;;;;11.92;69.23;102673.38;5028853;28;9698;-67
2022/09/21 00:16:07;;;;;;;;;2.00;2.00;;;;;11.86;69.55;102670.28;5030069;28;9685;-66
2022/09/21 00:18:34;;;;;;;;;4.25;1.00;;;;;11.85;69.72;102679.38;5029848;28;9817;-67
2022/09/21 00:21:06;;;;;;;;;2.50;2.50;;;;;11.82;69.52;102681.53;5030410;28;9655;-66
2022/09/21 00:23:35;;;;;;;;;3.50;3.50;;;;;11.78;69.94;102678.28;5025764;28;9802;-66
2022/09/21 00:26:22;;;;;;;;;3.25;3.25;;;;;11.77;69.70;102671.19;5010599;28;9753;-66
2022/09/21 00:28:54;;;;;;;;;2.25;2.25;;;;;11.75;69.58;102680.44;5024256;28;9686;-66
2022/09/21 00:31:21;;;;;;;;;6.50;6.00;;;;;11.73;69.92;102677.91;5028960;28;9856;-67
2022/09/21 00:33:49;;;;;;;;;5.25;4.50;;;;;11.72;69.92;102678.09;5029877;28;9784;-65
2022/09/21 00:36:18;;;;;;;;;4.00;2.00;;;;;11.71;69.95;102676.38;5029919;28;9858;-67
2022/09/21 00:38:49;;;;;;;;;2.75;2.75;;;;;11.69;70.09;102676.53;5029698;28;9685;-64
2022/09/21 00:41:16;;;;;;;;;2.00;2.00;;;;;11.67;69.83;102675.88;5029580;28;9912;-66
2022/09/21 00:43:47;;;;;;;;;4.75;1.75;;;;;11.67;69.79;102675.88;5029554;28;9854;-65
2022/09/21 00:46:28;;;;;;;;;2.25;2.25;;;;;11.64;70.03;102674.31;5029649;28;9809;-65
2022/09/21 00:48:55;;;;;;;;;4.00;3.00;;;;;11.62;69.74;102676.31;5029976;28;9929;-65
2022/09/21 00:51:22;;;;;;;;;2.50;2.50;;;;;11.61;69.79;102676.47;5029957;28;9925;-65
2022/09/21 00:53:53;;;;;;;;;3.00;3.00;;;;;11.59;70.14;102681.19;5030390;28;9896;-66
2022/09/21 00:56:21;;;;;;;;;2.75;2.50;;;;;11.58;70.10;102679.47;5029701;28;9831;-66
2022/09/21 00:58:52;;;;;;;;;2.00;2.00;;;;;11.55;70.14;102674.41;5029590;28;9928;-66
2022/09/21 01:01:19;;;;;;;;;1.00;1.00;;;;;11.52;70.19;102677.41;5029640;28;9754;-66
2022/09/21 01:03:46;;;;;;;;;3.00;3.00;;;;;11.50;69.82;102676.72;5029452;28;9751;-68
2022/09/21 01:06:15;;;;;;;;;4.50;2.25;;;;;11.50;70.19;102676.72;5029319;28;9905;-66
2022/09/21 01:08:43;;;;;;;;;6.25;3.50;;;;;11.49;70.04;102675.03;5029465;28;9796;-66
2022/09/21 01:11:51;;;;;;;;;3.50;3.00;;;;;11.49;70.06;102675.03;5029594;28;9893;-66
2022/09/21 01:14:49;;;;;;;;;4.75;3.50;;;;;11.48;70.14;102676.88;5009645;28;9844;-66
2022/09/21 01:17:32;;;;;;;;;2.00;2.00;;;;;11.48;70.34;102674.19;5029337;28;9845;-66
2022/09/21 01:20:23;;;;;;;;;5.50;4.50;;;;;11.49;70.24;102680.41;5020507;28;9943;-67
2022/09/21 01:23:30;;;;;;;;;1.75;1.25;;;;;11.48;70.17;102687.66;5029387;28;9842;-66
2022/09/21 01:26:24;;;;;;;;;2.50;2.50;;;;;11.45;70.36;102679.03;5028322;28;9849;-66
2022/09/21 01:29:06;;;;;;;;;2.00;2.00;;;;;11.43;70.44;102672.97;5009754;28;9924;-67
2022/09/21 01:31:39;;;;;;;;;3.50;3.50;;;;;11.43;70.16;102683.75;5009973;28;9929;-66
2022/09/21 01:34:20;;;;;;;;;6.00;2.00;;;;;11.42;70.35;102676.63;5024629;28;9908;-66
2022/09/21 01:36:52;;;;;;;;;5.75;4.50;;;;;11.41;70.58;102677.66;5029253;28;9827;-66
2022/09/21 01:39:22;;;;;;;;;3.25;3.25;;;;;11.38;70.25;102682.34;5029529;28;9760;-66
2022/09/21 01:41:50;;;;;;;;;2.25;2.25;;;;;11.36;70.21;102675.41;5028051;28;10607;-66
2022/09/21 01:44:21;;;;;;;;;1.00;1.00;;;;;11.34;70.10;102675.59;5029611;28;10073;-66
2022/09/21 01:46:48;;;;;;;;;8.00;4.00;;;;;11.33;70.32;102676.56;5028965;28;9910;-66
2022/09/21 01:49:24;;;;;;;;;2.50;2.50;;;;;11.33;70.20;102686.50;5029018;28;10103;-68
2022/09/21 01:51:57;;;;;;;;;1.25;1.25;;;;;11.31;70.07;102670.50;5029491;28;9834;-66
2022/09/21 01:54:32;;;;;;;;;2.00;2.00;;;;;11.30;70.26;102671.50;5031130;28;9877;-66
2022/09/21 01:57:11;;;;;;;;;2.25;2.25;;;;;11.30;70.42;102681.41;5033141;28;9854;-66
2022/09/21 01:59:49;;;;;;;;;2.00;2.00;;;;;11.28;70.30;102678.03;5033011;28;9783;-65
2022/09/21 02:02:22;;;;;;;;;2.75;2.00;;;;;11.27;70.41;102671.81;5032798;28;9851;-66
2022/09/21 02:04:49;;;;;;;;;2.25;2.25;;;;;11.26;70.59;102671.94;5032924;28;9818;-66
2022/09/21 02:07:17;;;;;;;;;3.50;2.00;;;;;11.24;70.70;102674.78;5032732;28;9869;-65
2022/09/21 02:09:46;;;;;;;;;2.50;1.25;;;;;11.24;70.64;102677.50;5032689;28;9925;-65
2022/09/21 02:12:13;;;;;;;;;2.00;2.00;;;;;11.25;70.43;102678.34;5032813;28;9863;-66
2022/09/21 02:14:45;;;;;;;;;2.00;2.00;;;;;11.23;70.59;102674.97;5033018;28;9915;-66
2022/09/21 02:17:24;;;;;;;;;4.25;4.25;;;;;11.23;70.63;102681.19;5032639;28;9843;-66
2022/09/21 02:20:17;;;;;;;;;1.25;1.25;;;;;11.24;70.99;102682.88;5031914;28;9940;-66
2022/09/21 02:22:53;;;;;;;;;5.25;3.50;;;;;11.26;70.98;102680.91;5032545;28;9911;-66
2022/09/21 02:25:34;;;;;;;;;2.25;2.25;;;;;11.28;71.18;102684.28;5032280;28;9914;-66
2022/09/21 02:28:08;;;;;;;;;1.25;1.25;;;;;11.30;71.02;102686.81;5047749;28;9849;-66
2022/09/21 02:30:38;;;;;;;;;4.00;2.50;;;;;11.29;71.05;102675.16;5032534;28;9861;-66
2022/09/21 02:33:12;;;;;;;;;4.00;1.75;;;;;11.32;70.94;102682.97;5042150;28;9828;-66
2022/09/21 02:35:53;;;;;;;;;3.00;3.00;;;;;11.33;71.06;102675.72;5032501;28;9919;-66
2022/09/21 02:38:49;;;;;;;;;2.25;2.25;;;;;11.36;70.89;102680.81;5031984;28;9906;-66
2022/09/21 02:41:23;;;;;;;;;3.00;2.00;;;;;11.36;71.27;102678.13;5030226;28;9853;-66
2022/09/21 02:44:08;;;;;;;;;3.75;3.00;;;;;11.37;70.98;102677.94;5047518;28;9929;-66
2022/09/21 02:46:48;;;;;;;;;5.75;4.00;;;;;11.36;70.87;102678.13;5031949;28;9908;-66
2022/09/21 02:49:25;;;;;;;;;5.25;3.00;;;;;11.36;71.23;102678.97;5030641;28;9886;-66
2022/09/21 02:51:57;;;;;;;;;4.00;4.00;;;;;11.31;71.03;102670.50;5032010;28;9948;-66
2022/09/21 02:54:30;;;;;;;;;5.50;5.00;;;;;11.31;71.15;102670.50;5031698;28;9869;-66
2022/09/21 02:56:59;;;;;;;;;4.50;2.00;;;;;11.26;71.30;102666.53;5031866;28;10070;-66
2022/09/21 02:59:26;;;;;;;;;2.50;2.50;;;;;11.27;71.13;102671.81;5031850;28;9831;-66
2022/09/21 03:01:54;;;;;;;;;2.00;2.00;;;;;11.28;71.32;102668.09;5031966;28;10581;-65
2022/09/21 03:04:22;;;;;;;;;2.75;2.75;;;;;11.28;71.50;102662.69;5031638;28;9904;-65
2022/09/21 03:06:48;;;;;;;;;3.50;2.00;;;;;11.28;71.30;102670.78;5031655;28;9943;-65
2022/09/21 03:09:16;;;;;;;;;4.00;2.00;;;;;11.26;71.28;102667.41;5031456;28;9847;-66
2022/09/21 03:11:42;;;;;;;;;1.75;1.75;;;;;11.26;71.18;102670.13;5031952;28;10010;-65
2022/09/21 03:14:09;;;;;;;;;3.00;2.00;;;;;11.23;71.71;102675.81;5031874;28;9855;-65
2022/09/21 03:16:35;;;;;;;;;6.00;3.00;;;;;11.23;71.54;102665.03;5031471;28;9990;-66
2022/09/21 03:19:03;;;;;;;;;2.00;2.00;;;;;11.22;71.51;102668.72;5066694;22;9960;-65
2022/09/21 03:21:29;;;;;;;;;4.50;2.75;;;;;11.22;71.17;102674.13;5051027;28;10649;-64
2022/09/21 03:23:56;;;;;;;;;1.50;1.00;;;;;11.21;71.54;102669.72;5051658;28;9891;-65
2022/09/21 03:26:22;;;;;;;;;2.75;2.00;;;;;11.18;71.26;102666.47;5055172;28;9831;-64
2022/09/21 03:28:49;;;;;;;;;4.75;3.50;;;;;11.15;71.40;102667.63;5051895;28;10624;-66
2022/09/21 03:31:16;;;;;;;;;3.00;3.00;;;;;11.13;71.22;102666.94;5051430;28;9865;-66
2022/09/21 03:33:43;;;;;;;;;2.00;2.00;;;;;11.12;71.28;102670.63;5050668;28;10016;-66
2022/09/21 03:36:09;;;;;;;;;2.00;2.00;;;;;11.10;71.53;102673.50;5044832;28;9926;-66
2022/09/21 03:38:36;;;;;;;;;6.00;3.50;;;;;11.08;71.51;102669.25;5030875;28;9855;-66
2022/09/21 03:41:03;;;;;;;;;2.00;2.00;;;;;11.08;71.58;102680.03;5034237;28;10007;-65
2022/09/21 03:43:30;;;;;;;;;2.00;2.00;;;;;11.07;71.54;102681.03;5032852;28;9833;-64
2022/09/21 03:45:56;;;;;;;;;1.00;1.00;;;;;11.04;71.40;102676.78;5032038;28;10025;-65
2022/09/21 03:48:23;;;;;;;;;2.50;2.50;;;;;11.01;71.11;102677.06;5031393;28;10145;-66
2022/09/21 03:50:50;;;;;;;;;6.00;2.75;;;;;10.99;71.53;102683.63;5030871;28;10035;-66
2022/09/21 03:53:16;;;;;;;;;4.25;2.00;;;;;10.95;71.56;102676.84;5044875;28;10039;-65
2022/09/21 03:55:42;;;;;;;;;6.75;4.00;;;;;10.94;71.56;102686.78;5054128;28;9892;-64
2022/09/21 03:58:09;;;;;;;;;1.25;1.25;;;;;10.93;71.26;102686.94;5052538;28;10103;-64
2022/09/21 04:00:37;;;;;;;;;3.50;3.50;;;;;10.91;71.37;102678.16;5046130;28;10094;-66
2022/09/21 04:03:03;;;;;;;;;1.75;1.25;;;;;10.91;71.39;102684.41;5031828;28;10126;-66
2022/09/21 04:05:30;;;;;;;;;1.00;1.00;;;;;10.92;71.62;102677.16;5031189;28;10023;-66
2022/09/21 04:07:56;;;;;;;;;2.25;2.00;;;;;10.93;71.59;102677.00;5030963;28;9918;-66
2022/09/21 04:10:25;;;;;;;;;0.00;0.00;;;;;10.92;71.49;102675.31;5032144;28;10018;-67
2022/09/21 04:12:56;;;;;;;;;2.00;2.00;;;;;10.89;71.32;102676.44;5031490;28;9739;-66
2022/09/21 04:15:23;;;;;;;;;2.00;2.00;;;;;10.84;71.38;102676.06;5031468;28;9831;-66
2022/09/21 04:17:50;;;;;;;;;1.00;1.00;;;;;10.82;71.33;102675.38;5048324;28;9909;-68
2022/09/21 04:20:17;;;;;;;;;6.00;5.00;;;;;10.78;71.33;102675.84;5051697;28;9819;-66
2022/09/21 04:22:45;;;;;;;;;4.00;4.00;;;;;10.75;71.52;102678.81;5051107;28;10155;-65
2022/09/21 04:25:13;;;;;;;;;3.00;2.25;;;;;10.72;71.27;102674.56;5045385;28;10019;-65
2022/09/21 04:27:41;;;;;;;;;3.25;2.00;;;;;10.71;71.42;102683.66;5030914;28;10000;-67
2022/09/21 04:30:11;;;;;;;;;4.00;4.00;;;;;10.70;71.51;102679.28;5030439;28;10055;-65
2022/09/21 04:32:37;;;;;;;;;2.00;2.00;;;;;10.71;71.65;102691.72;5041171;28;9906;-65
2022/09/21 04:35:04;;;;;;;;;3.00;3.00;;;;;10.72;71.79;102687.19;5050167;28;9973;-65
2022/09/21 04:37:31;;;;;;;;;5.00;2.00;;;;;10.75;71.41;102679.66;5049968;28;10022;-65
2022/09/21 04:39:57;;;;;;;;;2.75;1.75;;;;;10.75;71.80;102679.66;5051553;28;10792;-64
2022/09/21 04:42:24;;;;;;;;;3.00;1.00;;;;;10.76;71.72;102675.13;5040779;28;9920;-64
2022/09/21 04:44:50;;;;;;;;;5.75;5.00;;;;;10.76;71.68;102678.66;5034145;28;10285;-64
2022/09/21 04:47:17;;;;;;;;;2.00;2.00;;;;;10.77;71.75;102682.19;5045168;28;10528;-66
2022/09/21 04:49:43;;;;;;;;;3.00;3.00;;;;;10.75;71.33;102681.50;5054203;28;10126;-65
2022/09/21 04:52:09;;;;;;;;;2.75;2.75;;;;;10.70;71.49;102681.97;5054273;28;10644;-66
2022/09/21 04:54:39;;;;;;;;;2.00;2.00;;;;;10.67;71.30;102690.34;5051785;28;10756;-66
2022/09/21 04:57:05;;;;;;;;;2.00;2.00;;;;;10.64;71.69;102687.94;5049727;28;9992;-66
2022/09/21 04:59:32;;;;;;;;;5.00;3.25;;;;;10.61;71.68;102685.53;5047118;28;9956;-65
2022/09/21 05:01:58;;;;;;;;;4.00;2.75;;;;;10.60;71.46;102686.53;5030503;28;9969;-65
2022/09/21 05:04:24;;;;;;;;;3.50;1.75;;;;;10.60;71.65;102687.38;5030336;28;9982;-65
2022/09/21 05:06:51;;;;;;;;;3.00;3.00;;;;;10.60;71.33;102690.06;5029739;28;10022;-64
2022/09/21 05:12:02;;;;;;;;;5.00;3.50;;;;;10.57;71.41;102681.44;5030046;28;10063;-64
2022/09/21 05:14:29;;;;;;;;;4.50;4.25;;;;;10.57;71.49;102689.53;5031152;28;10089;-66
2022/09/21 05:16:55;;;;;;;;;4.00;3.75;;;;;10.54;71.33;102684.47;5030787;28;10006;-65
2022/09/21 05:19:22;;;;;;;;;3.75;3.75;;;;;10.52;71.86;102686.44;5029743;28;10282;-65
2022/09/21 05:21:48;;;;;;;;;4.25;4.25;;;;;10.51;71.76;102690.97;5029813;28;10164;-66
2022/09/21 05:24:15;;;;;;;;;4.50;3.25;;;;;10.51;71.63;102692.81;5029696;28;10846;-66
2022/09/21 05:26:41;;;;;;;;;4.00;4.00;;;;;10.51;71.78;102693.66;5030599;28;10805;-66
2022/09/21 05:29:08;;;;;;;;;4.00;3.25;;;;;10.55;71.60;102702.31;5031789;28;9996;-66
2022/09/21 05:31:40;;;;;;;;;5.00;5.00;;;;;10.54;71.99;102703.31;5034802;28;10023;-66
2022/09/21 05:34:21;;;;;;;;;9.75;6.00;;;;;10.56;71.61;102701.31;5033652;28;10200;-66
2022/09/21 05:37:11;;;;;;;;;6.00;4.25;;;;;10.58;72.13;102696.63;5033082;28;10035;-68
2022/09/21 05:39:38;;;;;;;;;6.75;6.75;;;;;10.60;71.77;102702.69;5033523;28;10078;-65
2022/09/21 05:42:05;;;;;;;;;5.00;5.00;;;;;10.62;72.22;102698.03;5051080;28;9993;-65
2022/09/21 05:44:31;;;;;;;;;6.00;6.00;;;;;10.64;72.13;102704.09;5053623;28;9976;-66
2022/09/21 05:47:04;;;;;;;;;7.75;5.50;;;;;10.69;72.37;102700.94;5045791;28;9995;-66
2022/09/21 05:49:48;;;;;;;;;12.00;10.00;;;;;10.71;72.36;102705.19;5033452;28;10119;-65
2022/09/21 05:52:22;;;;;;;;;6.75;6.75;;;;;10.74;72.21;102702.22;5037519;28;10196;-66
2022/09/21 05:55:17;;;;;;;;;8.00;6.25;;;;;10.77;72.08;102707.28;5033371;28;10078;-66
2022/09/21 05:57:54;;;;;;;;;6.75;5.00;;;;;10.81;72.56;102699.75;5032588;28;10256;-66
2022/09/21 06:00:22;;;;;;;;;5.00;5.00;;;;;10.81;72.25;102705.97;5031962;28;10155;-67
2022/09/21 06:03:24;;;;;;;;;9.50;6.00;;;;;10.85;72.47;102710.06;5032783;28;11031;-67
2022/09/21 06:05:50;;;;;;;;;3.50;3.50;;;;;10.88;72.66;102711.63;5043822;28;10891;-66
2022/09/21 06:08:17;;;;;;;;;3.50;3.50;;;;;10.91;72.38;102715.88;5052161;28;10171;-65
2022/09/21 06:10:43;;;;;;;;;7.25;5.00;;;;;10.91;72.52;102710.50;5052671;28;10086;-66
2022/09/21 06:13:10;;;;;;;;;7.00;5.75;;;;;10.92;72.55;102714.88;5052870;28;10205;-66
2022/09/21 06:15:37;;;;;;;;;5.75;5.50;;;;;10.95;72.76;102715.44;5051161;28;10005;-67
2022/09/21 06:18:04;;;;;;;;;7.75;5.00;;;;;10.95;72.92;102710.03;5054960;28;10145;-66
2022/09/21 06:20:31;;;;;;;;;7.50;6.75;;;;;10.98;73.19;102720.53;5054044;28;9866;-66
2022/09/21 06:23:07;;;;;;;;;7.50;7.50;;;;;11.01;73.01;102719.34;5054809;28;10123;-65
2022/09/21 06:25:33;;;;;;;;;11.25;9.00;;;;;11.03;73.29;102707.44;5055123;28;10288;-66
2022/09/21 06:28:04;;;;;;;;;8.75;6.00;;;;;11.06;72.83;102709.84;5051982;28;9999;-67
2022/09/21 06:30:33;;;;;;;;;5.25;5.25;;;;;11.09;73.12;102705.97;5041183;28;10124;-67
2022/09/21 06:33:01;;;;;;;;;8.00;6.00;;;;;11.10;73.19;102713.03;5032267;28;10783;-65
2022/09/21 06:35:28;;;;;;;;;7.50;5.00;;;;;11.11;72.97;102712.91;5046695;28;9826;-67
2022/09/21 06:37:59;;;;;;;;;5.25;3.00;;;;;11.13;73.48;102707.34;5052885;28;9923;-66
2022/09/21 06:40:29;;;;;;;;;6.00;4.00;;;;;11.15;73.46;102713.47;5054643;28;10010;-66
2022/09/21 06:42:57;;;;;;;;;5.00;3.00;;;;;11.14;73.40;102703.69;5053210;28;10083;-66
2022/09/21 06:45:25;;;;;;;;;5.00;5.00;;;;;11.15;73.62;102716.16;5045466;28;10704;-65
2022/09/21 06:47:52;;;;;;;;;5.00;5.00;;;;;11.16;73.56;102714.31;5049518;28;10610;-64
2022/09/21 06:50:19;;;;;;;;;4.50;4.50;;;;;11.16;73.75;102712.44;5032312;28;10017;-65
2022/09/21 06:52:45;;;;;;;;;5.25;5.00;;;;;11.17;73.30;102719.53;5034848;28;9858;-65
2022/09/21 06:55:13;;;;;;;;;7.00;6.50;;;;;11.18;73.56;102710.47;5034674;28;10690;-65
2022/09/21 06:57:39;;;;;;;;;8.00;6.00;;;;;11.21;73.80;102715.53;5034996;28;10014;-65
2022/09/21 07:00:08;;;;;;;;;8.00;8.00;;;;;11.26;73.50;102715.94;5051848;28;10854;-66
2022/09/21 07:02:35;;;;;;;;;7.50;7.00;;;;;11.33;73.80;102725.09;5043206;28;10087;-66
2022/09/21 07:05:03;;;;;;;;;4.50;4.50;;;;;11.42;73.83;102723.31;5032239;28;9928;-65
2022/09/21 07:07:29;;;;;;;;;6.75;4.75;;;;;11.52;73.68;102718.72;5032204;28;9741;-67
2022/09/21 07:10:00;;;;;;;;;5.50;5.50;;;;;11.60;73.27;102731.44;5031607;28;9946;-67
2022/09/21 07:12:33;;;;;;;;;8.25;7.00;;;;;11.67;73.47;102732.50;5039138;28;10028;-67
2022/09/21 07:15:04;;;;;;;;;4.50;4.00;;;;;11.74;73.19;102730.88;5051297;28;9670;-67
2022/09/21 07:17:35;;;;;;;;;5.00;4.00;;;;;11.78;72.60;102729.56;5049459;28;9760;-67
2022/09/21 07:20:02;;;;;;;;;6.00;4.25;;;;;11.85;72.54;102727.97;5051633;28;9844;-65
2022/09/21 07:22:31;;;;;;;;;6.25;6.25;;;;;11.90;72.68;102724.78;5053720;28;9657;-66
2022/09/21 07:24:57;;;;;;;;;6.00;4.25;;;;;11.96;72.69;102720.63;5051788;28;9774;-66
2022/09/21 07:27:25;;;;;;;;;5.00;5.00;;;;;12.04;72.79;102723.41;5044131;28;9618;-65
2022/09/21 07:29:51;;;;;;;;;3.00;3.00;;;;;12.09;72.65;102730.00;5046391;28;9601;-67
2022/09/21 07:32:18;;;;;;;;;4.50;2.25;;;;;12.15;72.68;102723.09;5051284;28;10463;-67
2022/09/21 07:34:45;;;;;;;;;5.00;2.00;;;;;12.20;72.37;102731.59;5051575;28;10832;-66
2022/09/21 07:37:13;;;;;;;;;2.75;2.75;;;;;12.26;72.34;102728.25;5053711;28;9655;-66
2022/09/21 07:39:39;;;;;;;;;3.00;2.00;;;;;12.31;71.86;102727.75;5053631;28;9612;-66
2022/09/21 07:42:06;;;;;;;;;1.25;1.25;;;;;12.37;71.98;102732.53;5032781;28;9546;-67
2022/09/21 07:44:33;;;;;;;;;1.00;1.00;;;;;12.42;71.71;102726.66;5030961;28;9517;-66
2022/09/21 07:47:01;;;;;;;;;1.25;1.00;;;;;12.45;71.45;102734.44;5049224;28;9513;-66
2022/09/21 07:49:27;;;;;;;;;2.25;0.00;;;;;12.49;71.34;102733.13;5038891;28;9518;-66
2022/09/21 07:51:53;;;;;;;;;1.00;1.00;;;;;12.51;70.83;102728.38;5049660;28;9469;-66
2022/09/21 07:54:20;;;;;;;;;0.33;0.33;;;;;12.52;70.41;102722.84;5038059;28;9431;-66
2022/09/21 07:59:04;;;;;;;;;1.67;0.00;;;;;12.53;70.22;102721.81;5030696;28;9317;-66
2022/09/21 07:59:33;;;;;;;;;0.00;0.00;;;;;12.57;69.98;102725.91;5044369;28;9455;-66
2022/09/21 08:01:59;;;;;;;;;0.00;0.00;;;;;12.62;69.47;102725.41;5050618;28;9266;-66
2022/09/21 08:04:26;;;;;;;;;0.00;0.00;;;;;12.67;69.27;102722.22;5050564;28;9201;-66
2022/09/21 08:06:52;;;;;;;;;0.00;0.00;;;;;12.70;68.87;102728.16;5048165;28;9300;-66
2022/09/21 08:09:19;;;;;;;;;1.00;0.00;;;;;12.75;68.76;102723.09;5030498;28;9409;-67
2022/09/21 08:11:45;;;;;;;;;0.00;0.00;;;;;12.80;68.66;102726.19;5030261;28;10104;-67
2022/09/21 08:14:18;;;;;;;;;0.00;0.00;;;;;12.86;68.41;102722.81;5048934;28;9384;-67
2022/09/21 08:16:51;;;;;;;;;0.33;0.33;;;;;12.92;68.20;102728.56;5053500;28;9240;-66
2022/09/21 08:19:18;;;;;;;;;0.00;0.00;;;;;12.97;68.06;102727.09;5053454;28;9304;-65
2022/09/21 08:21:48;;;;;;;;;0.00;0.00;;;;;13.03;67.87;102730.97;5040644;28;9404;-66
2022/09/21 08:24:20;;;;;;;;;0.00;0.00;;;;;13.06;67.18;102736.91;5031195;28;9289;-67
2022/09/21 08:26:47;;;;;;;;;1.00;0.00;;;;;13.12;66.97;102727.28;5029988;28;9385;-66
2022/09/21 08:29:13;;;;;;;;;0.00;0.00;;;;;13.18;67.19;102729.34;5036187;28;9302;-65
2022/09/21 08:31:39;;;;;;;;;0.00;0.00;;;;;13.25;67.11;102735.81;5052852;28;9374;-65
2022/09/21 08:34:06;;;;;;;;;0.00;0.00;;;;;13.31;66.84;102735.13;5049119;28;9055;-64
2022/09/21 08:36:33;;;;;;;;;0.00;0.00;;;;;13.37;66.62;102733.66;5033607;28;9154;-66
2022/09/21 08:38:59;;;;;;;;;0.67;0.67;;;;;13.40;66.25;102741.41;5043148;28;9231;-65
2022/09/21 08:41:45;;;;;;;;;0.00;0.00;;;;;13.47;66.09;102736.19;5052995;28;9162;-65
2022/09/21 08:44:22;;;;;;;;;0.00;0.00;;;;;13.53;65.54;102744.50;5049529;28;9809;-65
2022/09/21 08:47:09;;;;;;;;;0.00;0.00;;;;;13.61;65.81;102738.22;5038845;28;9181;-66
2022/09/21 08:49:39;;;;;;;;;0.00;0.00;;;;;13.62;64.88;102742.63;5029921;28;9166;-66
2022/09/21 08:52:11;;;;;;;;;1.00;0.00;;;;;13.67;64.33;102745.69;5031147;28;9094;-66
2022/09/21 08:54:51;;;;;;;;;0.00;0.00;;;;;13.68;64.09;102747.38;5030028;28;9902;-66
2022/09/21 08:57:19;;;;;;;;;0.00;0.00;;;;;13.71;63.52;102741.63;5030178;28;8912;-67
2022/09/21 08:59:47;;;;;;;;;0.00;0.00;;;;;13.67;63.27;102734.84;5030223;28;9154;-66
2022/09/21 09:02:36;;;;;;;;;0.00;0.00;;;;;13.69;62.77;102740.09;5032136;28;9654;-66
2022/09/21 09:05:18;;;;;;;;;0.67;0.00;;;;;13.72;62.99;102743.31;5034406;28;9020;-65
2022/09/21 09:08:20;;;;;;;;;0.00;0.00;;;;;13.80;62.87;102743.31;5043380;28;8918;-66
2022/09/21 09:10:53;;;;;;;;;0.00;0.00;;;;;13.85;62.79;102738.25;5032773;28;9071;-67
2022/09/21 09:13:29;;;;;;;;;0.00;0.00;;;;;13.87;62.66;102746.19;5034144;28;9189;-65
2022/09/21 09:16:18;;;;;;;;;0.00;0.00;;;;;13.88;62.26;102745.16;5051885;28;8970;-66
2022/09/21 09:18:49;;;;;;;;;0.00;0.00;;;;;13.91;62.15;102746.72;5091883;22;9575;-65
2022/09/21 09:21:21;;;;;;;;;0.00;0.00;;;;;13.94;62.31;102747.22;5033673;28;9008;-65
2022/09/21 09:24:00;;;;;;;;;0.00;0.00;;;;;13.99;60.89;102750.25;5050354;28;9292;-65
2022/09/21 09:26:41;;;;;;;;;0.00;0.00;;;;;14.01;61.23;102755.47;5053161;28;9000;-65
2022/09/21 09:29:21;;;;;;;;;1.00;1.00;;;;;14.07;61.41;102752.09;5030760;28;9179;-65
2022/09/21 09:31:50;;;;;;;;;0.00;0.00;;;;;14.08;61.18;102760.06;4995968;28;9018;-65
2022/09/21 09:34:41;;;;;;;;;0.00;0.00;;;;;14.12;60.90;102749.72;5028048;28;9000;-65
2022/09/21 09:37:14;;;;;;;;;0.00;0.00;;;;;14.18;61.13;102754.47;5013790;28;9723;-66
2022/09/21 09:39:44;;;;;;;;;0.75;0.00;;;;;14.22;60.22;102753.13;5013491;28;9220;-65
2022/09/21 09:42:22;;;;;;;;;0.00;0.00;;;;;14.29;60.21;102754.09;5031251;28;8871;-66
2022/09/21 09:44:49;;;;;;;;;1.00;1.00;;;;;14.36;60.32;102756.97;5031830;28;8936;-66
2022/09/21 09:47:57;;;;;;;;;0.00;0.00;;;;;14.47;59.28;102763.91;5013458;28;9049;-66
2022/09/21 09:50:31;;;;;;;;;0.00;0.00;;;;;14.48;59.27;102758.28;5028970;28;8906;-65
2022/09/21 09:53:03;;;;;;;;;1.00;0.00;;;;;14.53;58.65;102758.66;5032420;28;8952;-65
2022/09/21 09:55:43;;;;;;;;;0.00;0.00;;;;;14.62;58.91;102762.19;5021912;28;8915;-64
2022/09/21 09:58:37;;;;;;;;;2.00;0.00;;;;;14.67;58.61;102748.13;5013368;28;8907;-66
2022/09/21 10:01:04;;;;;;;;;0.00;0.00;;;;;14.67;58.50;102746.25;5015459;28;9082;-65
2022/09/21 10:03:30;;;;;;;;;0.00;0.00;;;;;14.71;58.42;102744.88;5013019;28;8937;-65
2022/09/21 10:05:57;;;;;;;;;0.00;0.00;;;;;14.79;58.72;102746.72;5014260;28;8915;-65
2022/09/21 10:08:35;;;;;;;;;0.75;0.00;;;;;14.87;57.67;102752.13;5023395;28;8852;-67
2022/09/21 10:11:02;;;;;;;;;1.00;0.00;;;;;14.93;57.81;102753.25;5031362;28;8864;-66
2022/09/21 10:13:32;;;;;;;;;0.00;0.00;;;;;14.92;57.64;102747.00;5016118;28;9000;-66
2022/09/21 10:16:02;;;;;;;;;1.00;0.00;;;;;14.91;58.18;102748.03;5025360;28;8921;-66
2022/09/21 10:18:39;;;;;;;;;0.00;0.00;;;;;14.87;57.76;102751.25;5012435;28;8977;-66
2022/09/21 10:21:26;;;;;;;;;1.00;1.00;;;;;14.82;57.51;102752.63;5019138;28;8832;-66
2022/09/21 10:24:00;;;;;;;;;0.00;0.00;;;;;14.79;57.29;102744.84;5019228;28;8950;-66
2022/09/21 10:26:35;;;;;;;;;0.00;0.00;;;;;14.74;57.34;102732.84;5031884;28;8824;-66
2022/09/21 10:29:20;;;;;;;;;0.00;0.00;;;;;14.82;57.93;102738.22;5032264;28;8832;-66
2022/09/21 10:31:57;;;;;;;;;0.00;0.00;;;;;14.89;57.91;102741.09;5011290;28;8850;-65
2022/09/21 10:34:26;;;;;;;;;0.00;0.00;;;;;14.91;58.34;102741.72;5011116;28;8939;-66
2022/09/21 10:36:55;;;;;;;;;0.00;0.00;;;;;14.95;57.74;102735.81;5012157;28;8863;-66
2022/09/21 10:39:31;;;;;;;;;0.00;0.00;;;;;15.01;57.40;102728.81;5012156;28;8830;-66
2022/09/21 10:42:21;;;;;;;;;0.00;0.00;;;;;15.00;57.74;102741.53;5012459;28;8839;-66
2022/09/21 10:45:03;;;;;;;;;0.00;0.00;;;;;15.04;57.26;102742.03;5012050;28;8845;-66
2022/09/21 10:47:40;;;;;;;;;0.00;0.00;;;;;15.09;56.67;102743.19;5026907;28;9589;-66
2022/09/21 10:50:20;;;;;;;;;0.00;0.00;;;;;15.07;56.95;102742.53;5032235;28;8856;-66
2022/09/21 10:52:49;;;;;;;;;0.00;0.00;;;;;15.01;56.37;102734.25;5016492;28;8847;-67
2022/09/21 10:55:19;;;;;;;;;0.00;0.00;;;;;14.93;55.79;102732.41;5032079;28;8955;-66
2022/09/21 10:57:46;;;;;;;;;0.00;0.00;;;;;14.88;55.74;102728.56;5031290;28;8820;-66
2022/09/21 11:00:33;;;;;;;;;0.00;0.00;;;;;14.83;56.65;102740.78;5031502;28;8836;-67
2022/09/21 11:03:22;;;;;;;;;0.00;0.00;;;;;14.81;57.17;102740.09;5031432;28;8919;-66
2022/09/21 11:05:50;;;;;;;;;0.00;0.00;;;;;14.77;56.11;102736.03;5021268;28;9558;-66
2022/09/21 11:08:25;;;;;;;;;0.00;0.00;;;;;14.79;56.22;102725.03;5020936;28;8856;-65
2022/09/21 11:11:40;;;;;;;;;0.00;0.00;;;;;14.83;56.37;102726.38;5031525;28;8874;-66
2022/09/21 11:14:30;;;;;;;;;0.00;0.00;;;;;14.83;56.72;102729.09;5025839;28;8833;-65
2022/09/21 11:17:13;;;;;;;;;0.00;0.00;;;;;14.82;57.22;102727.38;5010361;28;8846;-66
2022/09/21 11:19:48;;;;;;;;;1.00;0.00;;;;;14.81;57.46;102722.97;5011624;28;8835;-65
2022/09/21 11:22:29;;;;;;;;;0.00;0.00;;;;;14.81;57.72;102720.28;5011761;28;8851;-64
2022/09/21 11:25:01;;;;;;;;;0.50;0.00;;;;;14.84;57.67;102726.19;5011470;28;8839;-66
2022/09/21 11:27:37;;;;;;;;;0.00;0.00;;;;;14.89;57.29;102722.94;5010495;28;8842;-65
2022/09/21 11:30:17;;;;;;;;;0.00;0.00;;;;;15.02;57.16;102725.91;5022778;28;8887;-65
2022/09/21 11:32:54;;;;;;;;;0.00;0.00;;;;;15.13;56.98;102716.53;5011186;28;8851;-66
2022/09/21 11:35:34;;;;;;;;;0.75;0.00;;;;;15.20;56.07;102720.25;5010918;28;8839;-67
2022/09/21 11:38:08;;;;;;;;;0.00;0.00;;;;;15.15;55.81;102713.63;5010743;28;8823;-67
2022/09/21 11:41:01;;;;;;;;;0.00;0.00;;;;;15.10;55.94;102708.75;5010185;28;8954;-67
2022/09/21 11:43:37;;;;;;;;;0.25;0.00;;;;;15.04;55.64;102710.31;5010970;28;8858;-67
2022/09/21 11:46:43;;;;;;;;;0.50;0.00;;;;;14.99;55.53;102706.44;5011680;28;8823;-67
2022/09/21 11:49:45;;;;;;;;;0.00;0.00;;;;;14.97;55.13;102703.91;5011500;28;8858;-66
2022/09/21 11:52:38;;;;;;;;;0.00;0.00;;;;;14.93;54.80;102699.03;5011607;28;8851;-66
2022/09/21 11:55:23;;;;;;;;;1.50;0.25;;;;;14.90;55.42;102697.50;5011487;28;8843;-66
2022/09/21 11:58:09;;;;;;;;;0.00;0.00;;;;;14.90;55.94;102704.81;5010678;28;8862;-67
2022/09/21 12:00:50;;;;;;;;;0.00;0.00;;;;;14.96;55.83;102699.53;5011285;28;8811;-66